createdAt,value
2022-09-25T00:02:14.364Z,45.81
2022-09-25T00:04:42.413Z,45.88
2022-09-25T00:07:10.324Z,45.99
2022-09-25T00:09:38.296Z,45.73
2022-09-25T00:12:06.180Z,45.85
2022-09-25T00:14:34.016Z,45.88
2022-09-25T00:17:01.780Z,45.86
2022-09-25T00:19:48.018Z,45.79
2022-09-25T00:22:16.036Z,45.99
2022-09-25T00:24:43.932Z,46.04
2022-09-25T00:27:12.248Z,46.15
2022-09-25T00:29:40.660Z,46.30
2022-09-25T00:32:09.543Z,46.32
2022-09-25T00:34:37.911Z,46.27
2022-09-25T00:37:05.794Z,46.47
2022-09-25T00:39:33.713Z,46.67
2022-09-25T00:42:01.536Z,46.58
2022-09-25T00:44:52.659Z,46.56
2022-09-25T00:47:22.869Z,46.81
2022-09-25T00:49:51.535Z,46.89
2022-09-25T00:52:19.540Z,46.83
2022-09-25T00:54:49.833Z,47.02
2022-09-25T00:57:19.450Z,47.25
2022-09-25T00:59:54.792Z,47.21
2022-09-25T01:02:24.866Z,47.32
2022-09-25T01:04:52.809Z,47.36
2022-09-25T01:07:20.908Z,47.43
2022-09-25T01:09:49.162Z,47.43
2022-09-25T01:12:17.083Z,47.63
2022-09-25T01:14:44.885Z,47.58
2022-09-25T01:17:16.419Z,47.61
2022-09-25T01:19:48.055Z,47.69
2022-09-25T01:22:22.181Z,47.81
2022-09-25T01:24:58.960Z,47.80
2022-09-25T01:27:47.650Z,47.84
2022-09-25T01:30:17.744Z,48.06
2022-09-25T01:32:51.318Z,48.12
2022-09-25T01:35:22.480Z,48.29
2022-09-25T01:37:54.494Z,48.29
2022-09-25T01:40:26.554Z,48.44
2022-09-25T01:42:57.113Z,48.51
2022-09-25T01:45:28.687Z,48.67
2022-09-25T01:47:57.222Z,48.61
2022-09-25T01:50:27.904Z,48.67
2022-09-25T01:52:58.927Z,48.58
2022-09-25T01:55:30.568Z,48.66
2022-09-25T01:58:03.212Z,48.79
2022-09-25T02:00:32.581Z,48.60
2022-09-25T02:03:05.817Z,48.66
2022-09-25T02:05:36.041Z,48.89
2022-09-25T02:08:07.676Z,48.75
2022-09-25T02:10:36.624Z,48.77
2022-09-25T02:13:08.093Z,48.89
2022-09-25T02:15:37.948Z,49.15
2022-09-25T02:18:26.199Z,49.18
2022-09-25T02:20:57.568Z,49.22
2022-09-25T02:23:29.853Z,49.36
2022-09-25T02:26:03.125Z,49.32
2022-09-25T02:28:31.217Z,49.40
2022-09-25T02:31:00.919Z,49.56
2022-09-25T02:33:29.081Z,49.66
2022-09-25T02:35:58.720Z,49.64
2022-09-25T02:38:26.904Z,49.79
2022-09-25T02:40:56.199Z,49.83
2022-09-25T02:43:33.703Z,49.85
2022-09-25T02:46:06.742Z,49.98
2022-09-25T02:48:41.235Z,49.98
2022-09-25T02:51:12.963Z,50.00
2022-09-25T02:53:43.128Z,49.95
2022-09-25T02:56:13.825Z,50.02
2022-09-25T02:58:42.940Z,50.11
2022-09-25T03:01:13.624Z,50.13
2022-09-25T03:03:41.923Z,50.21
2022-09-25T03:06:10.199Z,50.20
2022-09-25T03:08:48.741Z,50.29
2022-09-25T03:11:19.260Z,50.21
2022-09-25T03:13:54.848Z,50.34
2022-09-25T03:16:29.967Z,50.25
2022-09-25T03:18:57.910Z,50.32
2022-09-25T03:21:25.899Z,50.36
2022-09-25T03:23:56.519Z,50.39
2022-09-25T03:26:24.620Z,50.44
2022-09-25T03:28:52.632Z,50.48
2022-09-25T03:31:20.680Z,50.49
2022-09-25T03:33:48.740Z,50.70
2022-09-25T03:36:18.518Z,50.60
2022-09-25T03:38:48.626Z,50.76
2022-09-25T03:41:20.465Z,50.69
2022-09-25T03:43:51.336Z,50.74
2022-09-25T03:46:20.263Z,50.86
2022-09-25T03:48:48.395Z,50.74
2022-09-25T03:51:16.250Z,50.90
2022-09-25T03:53:44.002Z,50.92
2022-09-25T03:56:12.800Z,50.96
2022-09-25T03:58:41.049Z,51.00
2022-09-25T04:01:10.530Z,51.04
2022-09-25T04:03:39.283Z,51.06
2022-09-25T04:06:08.469Z,50.94
2022-09-25T04:08:36.375Z,51.11
2022-09-25T04:11:04.664Z,51.07
2022-09-25T04:13:33.787Z,51.17
2022-09-25T04:16:03.449Z,51.18
2022-09-25T04:18:31.821Z,51.23
2022-09-25T04:20:59.983Z,51.23
2022-09-25T04:23:28.087Z,51.20
2022-09-25T04:25:56.028Z,51.31
2022-09-25T04:28:24.013Z,51.32
2022-09-25T04:30:51.870Z,51.29
2022-09-25T04:33:37.048Z,51.37
2022-09-25T04:36:05.296Z,51.44
2022-09-25T04:38:33.605Z,51.44
2022-09-25T04:41:01.930Z,51.52
2022-09-25T04:43:29.996Z,51.54
2022-09-25T04:46:01.582Z,51.61
2022-09-25T04:48:29.835Z,51.65
2022-09-25T04:50:58.024Z,51.60
2022-09-25T04:53:26.709Z,51.60
2022-09-25T04:56:00.094Z,51.73
2022-09-25T04:58:28.018Z,51.58
2022-09-25T05:00:55.802Z,51.75
2022-09-25T05:03:23.912Z,51.89
2022-09-25T05:05:51.796Z,51.87
2022-09-25T05:08:19.657Z,51.95
2022-09-25T05:10:47.401Z,51.87
2022-09-25T05:13:15.400Z,51.83
2022-09-25T05:15:43.406Z,51.74
2022-09-25T05:18:17.558Z,51.74
2022-09-25T05:20:45.854Z,51.52
2022-09-25T05:23:13.767Z,51.57
2022-09-25T05:25:41.876Z,51.49
2022-09-25T05:28:10.601Z,51.53
2022-09-25T05:30:39.115Z,51.43
2022-09-25T05:33:06.909Z,51.41
2022-09-25T05:35:36.012Z,51.39
2022-09-25T05:38:06.126Z,51.17
2022-09-25T05:40:34.153Z,51.10
2022-09-25T05:43:02.897Z,50.93
2022-09-25T05:45:30.860Z,50.75
2022-09-25T05:48:02.649Z,50.64
2022-09-25T05:50:31.705Z,50.69
2022-09-25T05:53:00.424Z,50.54
2022-09-25T05:55:28.246Z,50.26
2022-09-25T05:58:00.649Z,50.14
2022-09-25T06:00:28.609Z,49.93
2022-09-25T06:02:56.636Z,49.72
2022-09-25T06:05:24.608Z,49.59
2022-09-25T06:07:55.703Z,49.44
2022-09-25T06:10:25.411Z,49.04
2022-09-25T06:12:57.976Z,48.76
2022-09-25T06:15:27.265Z,48.59
2022-09-25T06:17:55.668Z,48.29
2022-09-25T06:20:24.293Z,47.84
2022-09-25T06:22:53.719Z,47.67
2022-09-25T06:25:23.236Z,47.42
2022-09-25T06:27:53.381Z,46.83
2022-09-25T06:30:21.731Z,46.52
2022-09-25T06:32:50.953Z,46.09
2022-09-25T06:35:18.820Z,45.80
2022-09-25T06:37:46.867Z,45.56
2022-09-25T06:40:15.608Z,45.23
2022-09-25T06:42:45.571Z,45.00
2022-09-25T06:45:13.660Z,44.77
2022-09-25T06:47:41.505Z,44.41
2022-09-25T06:50:11.223Z,44.03
2022-09-25T06:52:42.142Z,43.61
2022-09-25T06:55:10.321Z,43.32
2022-09-25T06:57:38.343Z,43.12
2022-09-25T07:00:07.842Z,42.97
2022-09-25T07:02:54.464Z,42.69
2022-09-25T07:05:22.375Z,42.22
2022-09-25T07:07:50.406Z,41.97
2022-09-25T07:10:18.247Z,41.68
2022-09-25T07:12:47.446Z,41.33
2022-09-25T07:15:15.635Z,41.03
2022-09-25T07:17:46.177Z,40.65
2022-09-25T07:20:14.799Z,40.51
2022-09-25T07:22:42.938Z,40.20
2022-09-25T07:25:10.966Z,39.83
2022-09-25T07:27:39.323Z,39.45
2022-09-25T07:30:09.139Z,39.34
2022-09-25T07:32:37.020Z,38.99
2022-09-25T07:35:05.556Z,39.04
2022-09-25T07:37:33.534Z,38.71
2022-09-25T07:40:01.820Z,38.37
2022-09-25T07:42:30.096Z,38.06
2022-09-25T07:44:57.991Z,37.74
2022-09-25T07:47:25.907Z,37.39
2022-09-25T07:49:53.796Z,37.24
2022-09-25T07:52:21.590Z,36.87
2022-09-25T07:54:49.455Z,36.69
2022-09-25T07:57:20.022Z,36.52
2022-09-25T07:59:47.842Z,36.41
2022-09-25T08:02:15.849Z,36.04
2022-09-25T08:04:43.860Z,35.72
2022-09-25T08:07:12.293Z,35.61
2022-09-25T08:09:40.155Z,35.12
2022-09-25T08:12:11.081Z,34.95
2022-09-25T08:14:39.010Z,34.76
2022-09-25T08:17:06.828Z,34.73
2022-09-25T08:19:35.058Z,34.45
2022-09-25T08:22:02.996Z,34.16
2022-09-25T08:24:30.821Z,34.04
2022-09-25T08:27:01.515Z,33.79
2022-09-25T08:29:30.444Z,33.78
2022-09-25T08:31:58.315Z,33.48
2022-09-25T08:34:42.244Z,33.32
2022-09-25T08:37:10.535Z,32.90
2022-09-25T08:39:38.528Z,32.77
2022-09-25T08:42:06.453Z,32.64
2022-09-25T08:44:36.967Z,32.54
2022-09-25T08:47:25.061Z,32.32
2022-09-25T08:49:58.424Z,32.03
2022-09-25T08:52:26.587Z,31.82
2022-09-25T08:54:54.499Z,31.64
2022-09-25T08:57:28.096Z,31.34
2022-09-25T09:00:01.567Z,31.13
2022-09-25T09:02:37.988Z,31.05
2022-09-25T09:05:07.550Z,30.87
2022-09-25T09:07:37.872Z,30.67
2022-09-25T09:10:09.016Z,30.33
2022-09-25T09:12:38.521Z,30.18
2022-09-25T09:15:14.990Z,30.02
2022-09-25T09:17:43.257Z,29.87
2022-09-25T09:20:15.732Z,29.51
2022-09-25T09:22:46.064Z,29.37
2022-09-25T09:25:19.051Z,29.39
2022-09-25T09:27:58.613Z,29.09
2022-09-25T09:30:30.185Z,29.01
2022-09-25T09:33:10.289Z,28.90
2022-09-25T09:35:42.971Z,28.62
2022-09-25T09:38:15.870Z,28.68
2022-09-25T09:40:48.680Z,28.71
2022-09-25T09:43:23.016Z,28.25
2022-09-25T09:45:54.616Z,28.26
2022-09-25T09:48:28.151Z,28.24
2022-09-25T09:50:59.048Z,28.04
2022-09-25T09:53:31.421Z,27.94
2022-09-25T09:56:01.659Z,28.02
2022-09-25T09:58:31.448Z,27.97
2022-09-25T10:01:11.121Z,27.81
2022-09-25T10:03:49.217Z,27.55
2022-09-25T10:06:22.403Z,27.30
2022-09-25T10:08:50.601Z,27.33
2022-09-25T10:11:19.245Z,27.39
2022-09-25T10:13:48.362Z,27.29
2022-09-25T10:16:17.835Z,27.34
2022-09-25T10:18:48.398Z,27.04
2022-09-25T10:21:18.292Z,27.22
2022-09-25T10:23:49.859Z,27.10
2022-09-25T10:26:28.296Z,27.01
2022-09-25T10:28:57.402Z,26.80
2022-09-25T10:31:27.332Z,26.82
2022-09-25T10:34:02.841Z,26.75
2022-09-25T10:36:39.322Z,26.73
2022-09-25T10:39:44.170Z,26.84
2022-09-25T10:42:26.957Z,26.68
2022-09-25T10:44:58.100Z,26.60
2022-09-25T10:47:50.646Z,26.27
2022-09-25T10:50:20.547Z,26.36
2022-09-25T10:52:53.232Z,26.27
2022-09-25T10:55:24.744Z,26.19
2022-09-25T10:57:56.597Z,26.12
2022-09-25T11:00:25.943Z,26.26
2022-09-25T11:02:55.957Z,26.33
2022-09-25T11:05:26.268Z,26.22
2022-09-25T11:07:55.441Z,26.06
2022-09-25T11:10:25.733Z,26.08
2022-09-25T11:12:54.005Z,25.73
2022-09-25T11:15:22.615Z,26.01
2022-09-25T11:17:51.667Z,26.10
2022-09-25T11:20:28.744Z,26.00
2022-09-25T11:23:04.096Z,25.95
2022-09-25T11:25:35.647Z,25.71
2022-09-25T11:28:08.522Z,25.84
2022-09-25T11:30:40.741Z,26.01
2022-09-25T11:33:12.630Z,26.13
2022-09-25T11:35:45.940Z,26.02
2022-09-25T11:38:40.409Z,26.11
2022-09-25T11:41:14.145Z,25.74
2022-09-25T11:43:55.602Z,25.56
2022-09-25T11:46:29.052Z,25.74
2022-09-25T11:49:02.841Z,25.79
2022-09-25T11:51:35.431Z,25.89
2022-09-25T11:54:31.817Z,25.54
2022-09-25T11:56:59.217Z,25.66
2022-09-25T11:59:31.773Z,25.65
2022-09-25T12:02:04.351Z,25.60
2022-09-25T12:04:44.133Z,25.86
2022-09-25T12:07:24.136Z,25.93
2022-09-25T12:10:06.839Z,25.70
2022-09-25T12:12:40.922Z,25.62
2022-09-25T12:15:16.615Z,25.81
2022-09-25T12:17:52.275Z,25.83
2022-09-25T12:20:30.389Z,25.72
2022-09-25T12:23:08.079Z,25.67
2022-09-25T12:25:47.411Z,25.82
2022-09-25T12:28:19.869Z,25.49
2022-09-25T12:30:56.487Z,25.66
2022-09-25T12:33:32.219Z,25.70
2022-09-25T12:36:03.712Z,25.72
2022-09-25T12:38:38.202Z,25.73
2022-09-25T12:41:10.352Z,25.70
2022-09-25T12:43:41.341Z,25.48
2022-09-25T12:46:13.416Z,25.41
2022-09-25T12:48:44.695Z,25.42
2022-09-25T12:51:16.263Z,25.64
2022-09-25T12:53:48.516Z,25.43
2022-09-25T12:56:23.663Z,25.31
2022-09-25T12:59:03.232Z,25.46
2022-09-25T13:01:35.100Z,25.32
2022-09-25T13:04:15.022Z,25.33
2022-09-25T13:06:47.723Z,25.23
2022-09-25T13:12:20.954Z,25.38
2022-09-25T13:14:51.641Z,25.38
2022-09-25T13:17:19.596Z,25.35
2022-09-25T13:19:47.524Z,25.30
2022-09-25T13:22:20.281Z,25.50
2022-09-25T13:24:51.881Z,25.39
2022-09-25T13:27:21.664Z,25.51
2022-09-25T13:29:57.413Z,25.53
2022-09-25T13:32:28.571Z,25.53
2022-09-25T13:34:58.467Z,25.41
2022-09-25T13:37:28.185Z,25.47
2022-09-25T13:40:14.259Z,25.36
2022-09-25T13:42:44.166Z,25.40
2022-09-25T13:45:28.955Z,25.48
2022-09-25T13:48:01.735Z,25.43
2022-09-25T13:50:34.037Z,25.33
2022-09-25T13:53:18.327Z,25.40
2022-09-25T13:56:01.075Z,25.44
2022-09-25T13:58:31.180Z,25.46
2022-09-25T14:01:00.518Z,25.61
2022-09-25T14:03:34.812Z,25.68
2022-09-25T14:06:04.513Z,25.53
2022-09-25T14:08:33.912Z,25.69
2022-09-25T14:11:10.906Z,25.85
2022-09-25T14:13:46.045Z,25.67
2022-09-25T14:16:19.861Z,25.68
2022-09-25T14:18:54.325Z,25.64
2022-09-25T14:21:24.913Z,25.57
2022-09-25T14:23:53.836Z,25.60
2022-09-25T14:26:24.880Z,25.58
2022-09-25T14:28:54.020Z,25.38
2022-09-25T14:31:30.619Z,25.39
2022-09-25T14:34:12.761Z,25.43
2022-09-25T14:36:48.761Z,25.39
2022-09-25T14:39:28.333Z,25.52
2022-09-25T14:42:19.112Z,25.50
2022-09-25T14:44:55.165Z,25.38
2022-09-25T14:47:29.688Z,25.53
2022-09-25T14:50:01.209Z,25.55
2022-09-25T14:52:31.586Z,25.88
2022-09-25T14:55:00.499Z,25.94
2022-09-25T14:57:30.944Z,26.03
2022-09-25T15:00:03.890Z,26.07
2022-09-25T15:02:34.156Z,26.26
2022-09-25T15:05:16.319Z,26.18
2022-09-25T15:07:44.798Z,26.11
2022-09-25T15:10:25.836Z,25.96
2022-09-25T15:12:54.443Z,25.81
2022-09-25T15:15:22.300Z,25.88
2022-09-25T15:17:52.853Z,25.94
2022-09-25T15:20:28.064Z,25.97
2022-09-25T15:22:57.067Z,25.95
2022-09-25T15:25:27.708Z,26.04
2022-09-25T15:27:55.697Z,26.02
2022-09-25T15:30:25.550Z,25.98
2022-09-25T15:32:59.849Z,26.15
2022-09-25T15:35:29.980Z,26.36
2022-09-25T15:38:07.923Z,26.67
2022-09-25T15:40:35.964Z,26.97
2022-09-25T15:43:10.312Z,26.96
2022-09-25T15:45:41.070Z,27.26
2022-09-25T15:48:20.712Z,27.35
2022-09-25T15:50:49.179Z,27.55
2022-09-25T15:53:22.895Z,27.74
2022-09-25T15:55:59.998Z,27.81
2022-09-25T15:58:27.971Z,27.99
2022-09-25T16:01:15.523Z,28.16
2022-09-25T16:04:04.578Z,28.12
2022-09-25T16:06:38.219Z,28.38
2022-09-25T16:09:09.100Z,28.41
2022-09-25T16:11:42.192Z,28.50
2022-09-25T16:14:19.496Z,28.59
2022-09-25T16:16:48.777Z,28.90
2022-09-25T16:19:40.339Z,28.82
2022-09-25T16:22:16.212Z,29.09
2022-09-25T16:24:48.608Z,29.07
2022-09-25T16:27:21.672Z,29.11
2022-09-25T16:29:49.979Z,29.31
2022-09-25T16:32:19.028Z,29.32
2022-09-25T16:34:52.731Z,29.61
2022-09-25T16:37:21.635Z,29.47
2022-09-25T16:40:07.639Z,29.88
2022-09-25T16:42:39.690Z,29.84
2022-09-25T16:45:15.364Z,29.78
2022-09-25T16:47:48.983Z,29.83
2022-09-25T16:50:18.332Z,30.01
2022-09-25T16:52:46.827Z,30.24
2022-09-25T16:55:16.549Z,30.33
2022-09-25T16:57:46.335Z,30.46
2022-09-25T17:00:15.639Z,30.58
2022-09-25T17:02:44.586Z,30.79
2022-09-25T17:05:17.118Z,30.82
2022-09-25T17:07:48.885Z,30.97
2022-09-25T17:10:17.870Z,31.00
2022-09-25T17:12:52.662Z,30.98
2022-09-25T17:15:23.383Z,31.01
2022-09-25T17:17:53.848Z,31.13
2022-09-25T17:20:22.958Z,31.20
2022-09-25T17:22:51.189Z,31.37
2022-09-25T17:25:22.513Z,31.40
2022-09-25T17:27:50.484Z,31.60
2022-09-25T17:30:18.690Z,31.66
2022-09-25T17:32:50.184Z,31.78
2022-09-25T17:35:32.780Z,32.02
2022-09-25T17:38:01.174Z,32.16
2022-09-25T17:40:30.550Z,32.20
2022-09-25T17:43:00.365Z,32.43
2022-09-25T17:45:31.343Z,32.40
2022-09-25T17:47:59.340Z,32.42
2022-09-25T17:50:27.516Z,32.55
2022-09-25T17:52:55.722Z,32.61
2022-09-25T17:55:24.508Z,33.17
2022-09-25T17:57:52.351Z,33.13
2022-09-25T18:00:20.428Z,33.13
2022-09-25T18:02:51.566Z,33.38
2022-09-25T18:05:19.476Z,33.70
2022-09-25T18:07:47.862Z,33.65
2022-09-25T18:10:17.360Z,33.87
2022-09-25T18:12:45.622Z,34.15
2022-09-25T18:15:13.645Z,33.98
2022-09-25T18:17:41.640Z,34.24
2022-09-25T18:20:29.483Z,34.44
2022-09-25T18:22:57.492Z,34.42
2022-09-25T18:25:25.290Z,34.62
2022-09-25T18:27:53.252Z,34.62
2022-09-25T18:30:22.612Z,34.81
2022-09-25T18:32:50.893Z,34.92
2022-09-25T18:35:19.765Z,35.00
2022-09-25T18:37:48.154Z,35.06
2022-09-25T18:40:17.584Z,35.25
2022-09-25T18:42:47.821Z,35.48
2022-09-25T18:45:15.803Z,35.49
2022-09-25T18:47:45.154Z,35.55
2022-09-25T18:50:16.776Z,35.74
2022-09-25T18:52:49.493Z,35.99
2022-09-25T18:55:17.423Z,36.00
2022-09-25T18:57:47.684Z,36.16
2022-09-25T19:00:15.954Z,36.21
2022-09-25T19:02:44.004Z,36.29
2022-09-25T19:05:19.701Z,36.35
2022-09-25T19:07:47.864Z,36.48
2022-09-25T19:10:15.731Z,36.73
2022-09-25T19:12:44.609Z,36.74
2022-09-25T19:15:12.873Z,36.95
2022-09-25T19:17:40.795Z,37.00
2022-09-25T19:20:09.744Z,37.29
2022-09-25T19:22:38.776Z,37.39
2022-09-25T19:25:07.335Z,37.53
2022-09-25T19:27:35.176Z,37.76
2022-09-25T19:30:03.552Z,37.91
2022-09-25T19:32:31.548Z,38.13
2022-09-25T19:34:59.573Z,38.35
2022-09-25T19:37:29.400Z,38.64
2022-09-25T19:40:15.642Z,38.82
2022-09-25T19:42:44.609Z,38.91
2022-09-25T19:45:13.588Z,39.19
2022-09-25T19:47:41.551Z,39.27
2022-09-25T19:50:10.108Z,39.55
2022-09-25T19:52:38.207Z,39.71
2022-09-25T19:55:06.754Z,39.93
2022-09-25T19:57:36.200Z,40.07
2022-09-25T20:00:04.627Z,40.33
2022-09-25T20:02:32.738Z,40.37
2022-09-25T20:05:00.747Z,40.48
2022-09-25T20:07:29.713Z,40.59
2022-09-25T20:09:57.886Z,40.75
2022-09-25T20:12:25.836Z,40.71
2022-09-25T20:14:54.341Z,41.04
2022-09-25T20:17:22.297Z,41.07
2022-09-25T20:19:53.384Z,41.08
2022-09-25T20:22:25.157Z,41.50
2022-09-25T20:24:53.371Z,41.55
2022-09-25T20:27:23.512Z,41.53
2022-09-25T20:29:51.757Z,41.63
2022-09-25T20:32:19.698Z,41.80
2022-09-25T20:34:47.745Z,42.00
2022-09-25T20:37:15.739Z,42.01
2022-09-25T20:39:43.668Z,42.14
2022-09-25T20:42:11.600Z,42.23
2022-09-25T20:44:39.610Z,42.48
2022-09-25T20:47:07.660Z,42.43
2022-09-25T20:49:35.764Z,42.67
2022-09-25T20:52:03.945Z,42.77
2022-09-25T20:54:38.450Z,42.78
2022-09-25T20:57:09.063Z,43.07
2022-09-25T20:59:40.761Z,43.00
2022-09-25T21:02:24.158Z,43.28
2022-09-25T21:04:52.903Z,43.49
2022-09-25T21:07:21.540Z,43.50
2022-09-25T21:09:49.387Z,43.60
2022-09-25T21:12:17.257Z,43.77
2022-09-25T21:14:45.227Z,43.84
2022-09-25T21:17:13.313Z,43.88
2022-09-25T21:19:41.274Z,44.05
2022-09-25T21:22:09.312Z,44.01
2022-09-25T21:24:37.183Z,43.95
2022-09-25T21:27:04.968Z,43.75
2022-09-25T21:29:33.705Z,43.62
2022-09-25T21:32:03.211Z,43.70
2022-09-25T21:34:31.173Z,43.57
2022-09-25T21:36:59.240Z,43.61
2022-09-25T21:39:27.289Z,43.78
2022-09-25T21:41:55.219Z,43.93
2022-09-25T21:44:24.348Z,43.82
2022-09-25T21:46:52.287Z,44.05
2022-09-25T21:49:21.033Z,44.21
2022-09-25T21:51:49.335Z,44.25
2022-09-25T21:54:17.320Z,44.48
2022-09-25T21:56:45.486Z,44.35
2022-09-25T21:59:14.010Z,44.21
2022-09-25T22:01:42.495Z,44.21
2022-09-25T22:04:11.980Z,44.13
2022-09-25T22:06:40.995Z,44.17
2022-09-25T22:09:11.062Z,44.15
2022-09-25T22:11:39.902Z,44.13
2022-09-25T22:14:23.404Z,44.28
2022-09-25T22:16:52.055Z,44.12
2022-09-25T22:19:20.805Z,44.16
2022-09-25T22:21:49.900Z,44.22
2022-09-25T22:24:18.154Z,44.30
2022-09-25T22:26:47.080Z,44.33
2022-09-25T22:29:15.907Z,44.43
2022-09-25T22:31:45.281Z,44.38
2022-09-25T22:34:17.732Z,44.42
2022-09-25T22:36:46.207Z,44.45
2022-09-25T22:39:15.680Z,44.53
2022-09-25T22:41:43.837Z,44.51
2022-09-25T22:44:11.720Z,44.62
2022-09-25T22:46:39.732Z,44.58
2022-09-25T22:49:07.837Z,44.68
2022-09-25T22:51:35.826Z,44.66
2022-09-25T22:54:03.801Z,44.69
2022-09-25T22:56:32.446Z,44.76
2022-09-25T22:59:01.216Z,44.83
2022-09-25T23:01:30.844Z,44.85
2022-09-25T23:04:00.169Z,44.96
2022-09-25T23:06:28.706Z,44.93
2022-09-25T23:08:57.389Z,45.02
2022-09-25T23:11:25.876Z,45.02
2022-09-25T23:13:57.584Z,45.13
2022-09-25T23:16:25.972Z,45.15
2022-09-25T23:18:55.517Z,45.18
2022-09-25T23:21:23.603Z,45.25
2022-09-25T23:23:55.220Z,45.25
2022-09-25T23:26:23.223Z,45.33
2022-09-25T23:28:51.246Z,45.37
2022-09-25T23:31:19.425Z,45.39
2022-09-25T23:33:47.462Z,45.43
2022-09-25T23:36:17.072Z,45.56
2022-09-25T23:38:45.271Z,45.59
2022-09-25T23:41:15.100Z,45.73
2022-09-25T23:43:43.595Z,45.74
2022-09-25T23:46:12.083Z,45.84
2022-09-25T23:48:40.115Z,45.90
2022-09-25T23:51:08.234Z,45.93
2022-09-25T23:53:36.173Z,45.95
2022-09-25T23:56:08.162Z,45.95
2022-09-25T23:58:36.343Z,45.87
